Time;durP1;ratioP1;P1;durP2;ratioP2;P2;SDS_P1;SDS_P2;PMS_P1;PMS_P2;Temp;Humidity;BMP_temperature;BMP_pressure;BME280_temperature;BME280_humidity;BME280_pressure;Samples;Min_cycle;Max_cycle;Signal;HPM_P1;HPM_P2
2021/09/30 00:01:50;;;;;;;12.93;1.90;;;;;;;13.13;63.45;102343.06;10502690;28;20025;-79
2021/09/30 00:06:50;;;;;;;7.22;2.38;;;;;;;13.13;63.44;102347.69;10503980;28;20035;-79
2021/09/30 00:11:55;;;;;;;2.40;1.60;;;;;;;13.32;62.71;102341.81;10503613;28;20043;-79
2021/09/30 00:53:41;;;;;;;9.02;2.00;;;;;;;13.53;61.25;102367.50;10502186;28;20097;-79
2021/09/30 01:21:52;;;;;;;5.47;1.67;;;;;;;13.43;61.63;102337.81;10500005;28;20029;-79
2021/09/30 02:24:31;;;;;;;8.38;1.55;;;;;;;13.39;61.25;102344.66;10464200;28;20032;-78
2021/09/30 02:29:38;;;;;;;5.35;1.80;;;;;;;13.64;60.75;102408.75;10482815;28;20577;-78
2021/09/30 03:01:21;;;;;;;8.63;1.90;;;;;;;12.93;59.92;102293.75;10468565;28;20060;-79
2021/09/30 03:06:22;;;;;;;8.88;1.88;;;;;;;13.57;60.47;102366.97;10480046;28;20573;-80
2021/09/30 03:11:23;;;;;;;3.55;2.35;;;;;;;13.56;59.84;102348.97;10480150;28;20094;-79
2021/09/30 03:27:12;;;;;;;10.57;2.53;;;;;;;13.59;59.32;102392.16;10481985;28;20393;-80
2021/09/30 03:32:12;;;;;;;12.77;2.78;;;;;;;13.59;59.12;102404.88;10500884;28;20032;-80
2021/09/30 03:37:13;;;;;;;8.40;1.77;;;;;;;13.36;58.67;102424.75;10470993;28;20059;-80
2021/09/30 03:42:13;;;;;;;12.63;2.10;;;;;;;13.44;58.63;102400.22;10502958;28;20059;-81
2021/09/30 03:47:14;;;;;;;14.85;2.45;;;;;;;12.41;58.95;102253.59;10487630;28;20047;-81
2021/09/30 04:02:39;;;;;;;3.53;2.10;;;;;;;13.67;59.31;102421.16;10489014;28;20111;-82
2021/09/30 04:07:40;;;;;;;6.32;2.58;;;;;;;12.95;57.95;102258.19;10507360;28;20075;-82
2021/09/30 04:12:40;;;;;;;8.93;1.90;;;;;;;13.16;58.88;102271.16;10506909;28;20036;-81
2021/09/30 04:17:41;;;;;;;9.30;2.33;;;;;;;13.20;58.18;102289.66;10487129;28;20033;-82
2021/09/30 04:22:42;;;;;;;8.40;2.30;;;;;;;14.28;58.25;102432.91;10506161;28;20173;-82
2021/09/30 04:27:42;;;;;;;12.05;2.22;;;;;;;14.39;58.08;102456.19;10505610;28;20048;-82
2021/09/30 04:32:42;;;;;;;4.50;1.48;;;;;;;14.25;58.09;102440.63;10486427;28;20123;-79
2021/09/30 04:37:43;;;;;;;3.97;2.22;;;;;;;13.68;58.90;102371.97;10503724;28;20028;-79
2021/09/30 04:42:43;;;;;;;4.50;2.10;;;;;;;14.16;58.27;102424.34;10501984;28;20068;-79
2021/09/30 04:47:43;;;;;;;9.13;2.15;;;;;;;14.28;58.18;102445.72;10502145;28;20039;-80
2021/09/30 04:52:44;;;;;;;13.52;2.35;;;;;;;13.29;57.81;102292.34;10483687;28;20188;-80
2021/09/30 04:57:44;;;;;;;5.72;2.08;;;;;;;14.03;57.72;102447.78;10502470;28;20032;-80
2021/09/30 05:02:47;;;;;;;9.90;2.08;;;;;;;13.89;57.59;102433.94;10504292;28;20064;-81
2021/09/30 05:07:47;;;;;;;10.95;3.13;;;;;;;13.84;57.33;102444.50;10487563;28;20047;-83
2021/09/30 05:12:49;;;;;;;8.52;2.70;;;;;;;13.79;58.26;102446.13;10429195;28;20045;-81
2021/09/30 05:17:49;;;;;;;10.73;2.40;;;;;;;13.59;57.81;102430.25;10497190;28;20032;-81
2021/09/30 05:22:50;;;;;;;8.38;2.05;;;;;;;11.50;57.56;102102.88;10465844;28;20033;-81
2021/09/30 05:27:52;;;;;;;5.22;2.97;;;;;;;13.57;57.04;102462.25;10502660;28;20075;-80
2021/09/30 05:32:52;;;;;;;6.95;2.03;;;;;;;13.58;56.68;102446.75;10486179;28;20029;-82
2021/09/30 05:37:53;;;;;;;11.35;2.40;;;;;;;13.48;56.86;102447.81;10486127;28;20474;-81
2021/09/30 05:42:54;;;;;;;5.90;2.70;;;;;;;13.03;57.39;102396.84;10504949;28;20048;-82
2021/09/30 05:47:54;;;;;;;3.35;2.20;;;;;;;13.31;56.40;102434.50;10484466;28;20485;-82
2021/09/30 05:52:55;;;;;;;3.88;1.48;;;;;;;13.42;55.83;102431.38;10501077;28;20064;-82
2021/09/30 05:57:55;;;;;;;11.15;3.10;;;;;;;13.38;56.12;102436.31;10482792;28;20440;-82
2021/09/30 06:13:38;;;;;;;10.13;2.92;;;;;;;13.74;56.18;102416.69;10484518;28;20481;-82
2021/09/30 06:18:38;;;;;;;3.97;1.98;;;;;;;13.79;55.16;102419.72;10482186;28;20048;-82
2021/09/30 06:23:39;;;;;;;5.07;2.08;;;;;;;14.02;55.79;102438.78;10499217;28;20464;-82
2021/09/30 06:28:39;;;;;;;1.80;1.65;;;;;;;14.17;55.73;102445.13;10480952;28;20119;-82
2021/09/30 06:33:40;;;;;;;5.47;1.73;;;;;;;13.41;55.69;102280.03;10500278;28;20108;-81
2021/09/30 06:38:40;;;;;;;4.13;2.22;;;;;;;14.69;55.58;102438.00;10480345;28;20123;-81
2021/09/30 06:43:41;;;;;;;7.13;1.80;;;;;;;14.94;54.93;102443.19;10480385;28;20049;-81
2021/09/30 06:48:41;;;;;;;9.45;3.70;;;;;;;14.49;56.07;102366.81;10498308;28;20036;-81
2021/09/30 06:53:41;;;;;;;5.07;2.15;;;;;;;14.90;55.49;102442.72;10479878;28;20152;-81
2021/09/30 06:58:44;;;;;;;9.55;2.95;;;;;;;14.85;55.31;102426.91;10480408;28;20127;-81
2021/09/30 07:03:45;;;;;;;11.63;2.10;;;;;;;14.35;54.00;102311.22;10497448;28;20097;-81
2021/09/30 07:08:45;;;;;;;15.48;3.47;;;;;;;16.10;54.42;102452.31;10506697;28;20405;-80
2021/09/30 07:13:46;;;;;;;8.27;2.83;;;;;;;15.84;54.84;102442.81;10506492;28;20056;-80
2021/09/30 07:18:46;;;;;;;10.25;2.80;;;;;;;15.81;54.08;102301.16;10487498;28;20043;-80
2021/09/30 07:23:46;;;;;;;10.63;2.78;;;;;;;17.12;55.02;102443.56;10505036;28;20029;-80
2021/09/30 07:28:48;;;;;;;6.75;2.03;;;;;;;17.54;52.50;102458.88;10505574;28;20047;-80
2021/09/30 07:33:48;;;;;;;8.93;3.78;;;;;;;18.51;53.71;102456.72;10505584;28;20044;-80
2021/09/30 07:38:49;;;;;;;13.07;2.88;;;;;;;18.64;53.04;102462.19;10505029;28;20079;-80
2021/09/30 07:43:49;;;;;;;8.05;3.00;;;;;;;18.32;51.06;102425.53;10486911;28;20504;-79
2021/09/30 07:48:50;;;;;;;3.58;2.60;;;;;;;18.27;52.39;102469.19;10504740;28;20036;-79
2021/09/30 07:53:50;;;;;;;4.97;2.55;;;;;;;17.35;53.09;102344.66;10503612;28;20043;-80
2021/09/30 07:58:51;;;;;;;8.88;2.63;;;;;;;17.44;53.18;102407.25;10469432;28;20124;-79
2021/09/30 08:03:51;;;;;;;13.23;1.67;;;;;;;17.57;53.45;102479.56;10486304;28;20072;-79
2021/09/30 08:08:52;;;;;;;7.97;2.67;;;;;;;17.71;53.49;102473.09;10485729;28;20430;-79
2021/09/30 08:13:53;;;;;;;6.22;2.88;;;;;;;17.93;53.82;102476.50;10503967;28;20036;-79
2021/09/30 08:18:53;;;;;;;3.53;1.70;;;;;;;18.41;54.62;102459.03;10500957;28;20036;-79
2021/09/30 08:23:54;;;;;;;5.18;1.30;;;;;;;18.64;56.47;102488.81;10501642;28;20089;-78
2021/09/30 08:28:55;;;;;;;5.40;2.50;;;;;;;18.76;53.21;102468.75;10501911;28;20037;-78
2021/09/30 08:33:58;;;;;;;8.68;2.78;;;;;;;18.22;56.85;102479.91;10484572;28;20040;-78
2021/09/30 08:38:58;;;;;;;8.98;2.38;;;;;;;17.95;54.05;102474.41;10502270;28;20060;-79
2021/09/30 08:43:59;;;;;;;2.25;1.83;;;;;;;17.02;56.05;102380.16;10502611;28;20063;-78
2021/09/30 08:49:00;;;;;;;2.97;1.92;;;;;;;17.25;58.28;102487.44;10502923;28;20036;-78
2021/09/30 08:54:00;;;;;;;5.45;2.67;;;;;;;16.57;55.74;102325.00;10502142;28;20052;-79
2021/09/30 08:59:14;;;;;;;8.93;4.78;;;;;;;17.10;57.60;102435.56;10501932;28;20056;-78
2021/09/30 09:04:19;;;;;;;5.93;2.35;;;;;;;17.54;54.56;102478.06;10501296;28;20025;-78
2021/09/30 09:09:20;;;;;;;7.38;2.85;;;;;;;16.30;55.04;102263.84;10501046;28;20029;-78
2021/09/30 09:14:28;;;;;;;7.15;2.78;;;;;;;15.89;55.89;102189.03;10450011;28;20047;-78
2021/09/30 09:19:55;;;;;;;13.93;3.03;;;;;;;17.55;57.47;102441.44;10482355;28;20029;-77
2021/09/30 09:25:06;;;;;;;5.85;3.33;;;;;;;17.99;55.38;102434.56;10472570;28;20037;-78
2021/09/30 09:30:32;;;;;;;5.65;2.58;;;;;;;18.62;52.68;102425.88;10499594;28;20032;-79
2021/09/30 09:35:53;;;;;;;3.22;1.90;;;;;;;18.20;52.41;102285.47;10499435;28;20036;-77
2021/09/30 09:40:56;;;;;;;4.63;1.83;;;;;;;19.47;51.46;102439.56;10482547;28;20048;-77
2021/09/30 09:45:56;;;;;;;2.33;1.60;;;;;;;19.42;49.99;102417.41;10481731;28;20043;-77
2021/09/30 09:50:57;;;;;;;2.50;1.67;;;;;;;19.96;52.16;102429.78;10480481;28;20083;-77
2021/09/30 09:56:20;;;;;;;2.10;1.77;;;;;;;20.27;53.56;102412.38;10498939;28;20078;-78
2021/09/30 10:01:25;;;;;;;3.50;2.00;;;;;;;19.26;49.32;102444.31;10481637;28;20450;-78
2021/09/30 10:06:27;;;;;;;11.27;2.75;;;;;;;18.10;51.06;102279.59;10498902;28;20090;-78
2021/09/30 10:11:28;;;;;;;5.78;2.08;;;;;;;19.29;51.99;102430.13;10447897;28;20028;-77
2021/09/30 10:16:29;;;;;;;1.85;1.38;;;;;;;18.59;50.40;102449.09;10481354;28;20123;-78
2021/09/30 10:21:30;;;;;;;4.05;2.05;;;;;;;18.62;52.35;102420.41;10480661;28;20078;-77
2021/09/30 10:26:46;;;;;;;3.72;1.25;;;;;;;18.83;51.94;102430.31;10481580;28;20032;-78
2021/09/30 10:31:46;;;;;;;2.53;1.77;;;;;;;17.61;50.72;102280.84;10481854;28;20025;-78
2021/09/30 10:36:48;;;;;;;10.93;1.58;;;;;;;18.16;52.38;102415.81;10464064;28;20041;-77
2021/09/30 10:41:57;;;;;;;3.92;1.45;;;;;;;18.42;50.71;102408.63;10478071;28;20433;-77
2021/09/30 10:46:58;;;;;;;3.70;2.25;;;;;;;18.02;50.31;102381.22;10497174;28;20117;-77
2021/09/30 10:52:14;;;;;;;5.13;1.98;;;;;;;18.14;51.70;102439.84;10479695;28;20123;-77
2021/09/30 10:57:32;;;;;;;4.60;2.00;;;;;;;16.50;53.00;102260.19;10479873;28;20421;-77
2021/09/30 11:03:01;;;;;;;5.45;2.03;;;;;;;17.61;52.46;102418.69;10498264;28;20048;-77
2021/09/30 11:08:20;;;;;;;2.20;1.52;;;;;;;17.60;52.64;102410.66;10498793;28;20090;-77
2021/09/30 11:13:22;;;;;;;2.95;2.33;;;;;;;17.15;52.89;102309.03;10497998;28;20115;-78
2021/09/30 11:18:55;;;;;;;8.27;2.10;;;;;;;17.17;53.31;102353.47;10479557;28;20060;-78
2021/09/30 11:24:14;;;;;;;2.92;1.60;;;;;;;17.50;53.83;102400.09;10496905;28;20040;-77
2021/09/30 11:29:36;;;;;;;2.22;1.67;;;;;;;17.72;52.32;102400.78;10480616;28;20051;-77
2021/09/30 11:34:50;;;;;;;3.58;2.00;;;;;;;17.66;51.47;102398.88;10497895;28;20036;-78
2021/09/30 11:39:50;;;;;;;7.15;1.75;;;;;;;17.61;52.91;102382.22;10478957;28;20037;-77
2021/09/30 11:44:59;;;;;;;1.70;1.60;;;;;;;17.71;52.00;102379.94;10478907;28;20065;-77
2021/09/30 11:49:59;;;;;;;6.82;1.42;;;;;;;16.89;51.47;102222.25;10479915;28;20044;-78
2021/09/30 11:55:20;;;;;;;4.30;1.10;;;;;;;18.04;51.75;102385.44;10468205;28;20124;-77
2021/09/30 12:00:21;;;;;;;3.40;1.13;;;;;;;17.40;51.64;102377.75;10504301;28;20087;-77
2021/09/30 12:05:24;;;;;;;3.08;1.92;;;;;;;17.78;52.49;102372.59;10486424;28;20028;-77
2021/09/30 12:10:25;;;;;;;7.05;1.55;;;;;;;17.69;50.38;102309.94;10504139;28;20033;-77
2021/09/30 12:15:26;;;;;;;3.58;1.85;;;;;;;17.82;50.48;102360.13;10485967;28;20032;-77
2021/09/30 12:20:26;;;;;;;6.18;1.95;;;;;;;18.01;51.06;102358.47;10503507;28;20452;-77
2021/09/30 12:25:27;;;;;;;1.92;1.40;;;;;;;18.47;50.16;102357.53;10502671;28;20032;-77
2021/09/30 12:30:28;;;;;;;2.13;1.23;;;;;;;18.88;50.74;102331.69;10484939;28;20035;-78
2021/09/30 12:35:38;;;;;;;6.10;1.65;;;;;;;18.92;50.12;102266.22;10503241;28;20464;-77
2021/09/30 12:40:53;;;;;;;8.57;2.28;;;;;;;19.38;49.66;102300.78;10503939;28;20507;-77
2021/09/30 12:45:57;;;;;;;3.55;1.85;;;;;;;18.13;51.76;102225.16;10460643;28;20140;-78
2021/09/30 12:51:04;;;;;;;7.97;2.10;;;;;;;17.88;50.46;102128.25;10442511;28;20037;-78
2021/09/30 12:56:07;;;;;;;4.78;1.75;;;;;;;18.38;52.14;102275.69;10459837;28;20381;-77
2021/09/30 13:01:25;;;;;;;1.23;1.13;;;;;;;18.24;54.10;102300.44;10461139;28;20040;-77
2021/09/30 13:06:25;;;;;;;9.68;2.38;;;;;;;18.01;52.84;102286.34;10459684;28;20550;-77
2021/09/30 13:11:33;;;;;;;5.00;2.58;;;;;;;17.97;50.71;102236.59;10460402;28;20114;-76
2021/09/30 13:16:33;;;;;;;4.05;1.92;;;;;;;18.23;51.58;102263.09;10442096;28;20049;-77
2021/09/30 13:21:53;;;;;;;6.00;2.40;;;;;;;18.09;52.33;102265.03;10459437;28;20033;-77
2021/09/30 13:26:54;;;;;;;14.18;2.38;;;;;;;16.88;52.36;102201.38;10458249;28;20036;-78
2021/09/30 13:31:54;;;;;;;5.57;1.17;;;;;;;17.40;54.77;102240.84;10441471;28;20515;-77
2021/09/30 13:36:54;;;;;;;4.18;2.25;;;;;;;17.16;54.20;102234.06;10459374;28;20037;-77
2021/09/30 13:41:55;;;;;;;2.55;1.65;;;;;;;17.33;53.96;102250.94;10469366;28;20059;-77
2021/09/30 13:46:55;;;;;;;6.53;2.15;;;;;;;17.48;53.91;102220.59;10501627;28;20048;-77
2021/09/30 13:51:56;;;;;;;1.50;1.35;;;;;;;16.90;53.66;102197.41;10500824;28;20040;-78
2021/09/30 13:56:56;;;;;;;7.47;2.22;;;;;;;17.22;56.39;102191.34;10483022;28;20072;-77
2021/09/30 14:01:56;;;;;;;5.35;2.88;;;;;;;16.97;56.22;102186.47;10499243;28;20040;-77
2021/09/30 14:06:58;;;;;;;8.98;1.98;;;;;;;15.86;56.17;101954.50;10481180;28;20070;-77
2021/09/30 14:11:59;;;;;;;6.47;3.03;;;;;;;17.05;54.97;102166.28;10499160;28;20037;-77
2021/09/30 14:17:00;;;;;;;6.97;1.92;;;;;;;16.31;54.42;102050.44;10498533;28;20086;-77
2021/09/30 14:22:00;;;;;;;6.40;1.75;;;;;;;17.36;54.97;102188.41;10481308;28;20074;-77
2021/09/30 14:27:01;;;;;;;5.25;1.95;;;;;;;16.96;52.86;102177.41;10498721;28;20439;-77
2021/09/30 14:32:02;;;;;;;2.28;1.60;;;;;;;16.37;51.92;102030.47;10498150;28;20040;-77
2021/09/30 14:37:03;;;;;;;5.75;2.15;;;;;;;17.27;53.26;102170.50;10480360;28;20044;-77
2021/09/30 14:42:03;;;;;;;3.70;1.90;;;;;;;17.32;50.12;102167.94;10498157;28;20120;-77
2021/09/30 14:47:04;;;;;;;13.55;3.03;;;;;;;16.52;52.38;102106.81;10498547;28;20116;-77
2021/09/30 14:52:06;;;;;;;5.60;2.17;;;;;;;16.64;53.84;102083.28;10463533;28;20070;-77
2021/09/30 14:57:06;;;;;;;1.25;1.15;;;;;;;17.01;50.85;102121.25;10480309;28;20120;-77
2021/09/30 15:02:07;;;;;;;4.95;1.73;;;;;;;16.31;52.44;101967.59;10480404;28;20040;-77
2021/09/30 15:07:07;;;;;;;10.88;2.05;;;;;;;17.36;52.38;102125.41;10480108;28;20040;-77
2021/09/30 15:12:07;;;;;;;3.40;1.48;;;;;;;17.46;52.42;102122.25;10497670;28;20121;-76
2021/09/30 15:17:33;;;;;;;7.00;1.67;;;;;;;17.10;52.45;102044.19;10497456;28;20143;-77
2021/09/30 15:22:34;;;;;;;5.38;1.73;;;;;;;16.44;51.95;101987.56;10483063;28;20040;-77
2021/09/30 15:27:35;;;;;;;7.93;2.13;;;;;;;17.27;52.80;102107.53;10465192;28;20356;-77
2021/09/30 15:32:36;;;;;;;8.93;2.10;;;;;;;17.74;51.98;102110.13;10505227;28;20048;-77
2021/09/30 15:37:36;;;;;;;9.77;2.97;;;;;;;16.40;52.05;101988.19;10505209;28;20384;-77
2021/09/30 15:42:37;;;;;;;7.53;2.58;;;;;;;16.41;54.62;101974.31;10504465;28;20044;-76
2021/09/30 15:47:37;;;;;;;7.55;2.05;;;;;;;16.21;52.46;101911.47;10486975;28;20041;-76
2021/09/30 15:52:38;;;;;;;4.43;2.10;;;;;;;17.25;52.25;102082.25;10486816;28;20422;-76
2021/09/30 15:57:38;;;;;;;4.15;1.63;;;;;;;17.46;53.27;102088.53;10504237;28;20032;-76
2021/09/30 16:02:38;;;;;;;6.78;1.90;;;;;;;16.90;52.66;102087.97;10503808;28;20037;-76
2021/09/30 16:07:39;;;;;;;3.28;1.65;;;;;;;16.89;52.57;102079.97;10504370;28;20060;-77
2021/09/30 16:12:39;;;;;;;3.72;1.48;;;;;;;16.81;52.74;102022.72;10485900;28;20056;-77
2021/09/30 16:17:40;;;;;;;13.32;2.10;;;;;;;17.21;53.75;102078.25;10503992;28;20094;-77
2021/09/30 16:22:40;;;;;;;9.18;2.20;;;;;;;16.88;52.05;102072.78;10484232;28;20078;-77
2021/09/30 16:27:41;;;;;;;7.03;2.70;;;;;;;16.90;52.02;102052.38;10503056;28;20119;-77
2021/09/30 16:32:41;;;;;;;19.83;2.53;;;;;;;15.84;51.75;101869.19;10503128;28;20064;-78
2021/09/30 16:37:42;;;;;;;3.03;1.60;;;;;;;17.08;52.47;102068.16;10468809;28;20257;-76
2021/09/30 16:42:42;;;;;;;1.20;1.02;;;;;;;16.59;53.71;102020.19;10483087;28;20052;-77
2021/09/30 16:47:44;;;;;;;10.43;2.00;;;;;;;16.33;52.90;101982.72;10503234;28;20135;-76
2021/09/30 16:52:45;;;;;;;3.60;1.85;;;;;;;15.67;53.99;101887.88;10501999;28;20036;-77
2021/09/30 16:57:46;;;;;;;1.40;1.30;;;;;;;16.44;53.34;102045.00;10502403;28;20039;-77
2021/09/30 17:02:46;;;;;;;3.63;1.85;;;;;;;16.37;53.72;102016.81;10484128;28;20042;-77
2021/09/30 17:07:47;;;;;;;11.50;2.13;;;;;;;15.74;54.13;101928.84;10503405;28;20036;-77
2021/09/30 17:12:50;;;;;;;5.10;1.55;;;;;;;16.67;53.68;102038.28;10484615;28;20043;-76
2021/09/30 17:17:51;;;;;;;6.10;2.17;;;;;;;16.68;53.00;102034.47;10501944;28;20471;-77
2021/09/30 17:22:51;;;;;;;1.83;1.42;;;;;;;16.52;53.95;102038.47;10482883;28;20143;-77
2021/09/30 17:27:52;;;;;;;6.95;2.15;;;;;;;16.59;53.36;102065.81;10483508;28;20039;-76
2021/09/30 17:32:52;;;;;;;3.72;2.47;;;;;;;16.39;53.99;102046.66;10500932;28;20379;-77
2021/09/30 17:37:54;;;;;;;3.95;1.63;;;;;;;15.40;55.64;101992.53;10500751;28;20032;-77
2021/09/30 17:42:55;;;;;;;6.90;2.22;;;;;;;15.66;56.32;102052.72;10500447;28;20063;-77
2021/09/30 17:47:55;;;;;;;5.18;2.33;;;;;;;15.58;57.61;102033.78;10482634;28;20491;-77
2021/09/30 17:52:56;;;;;;;3.67;1.50;;;;;;;14.54;56.99;101842.91;10498906;28;20035;-77
2021/09/30 17:57:58;;;;;;;5.95;1.70;;;;;;;15.13;55.87;101937.00;10500465;28;20060;-77
2021/09/30 18:02:59;;;;;;;4.35;1.77;;;;;;;15.54;55.66;101972.44;10465988;28;20462;-77
2021/09/30 18:08:00;;;;;;;5.50;1.60;;;;;;;14.75;55.46;101799.19;10483098;28;20044;-77
2021/09/30 18:13:00;;;;;;;2.80;1.63;;;;;;;15.75;55.76;101969.59;10480987;28;20041;-77
2021/09/30 18:18:01;;;;;;;3.80;2.03;;;;;;;15.87;56.10;102002.63;10499834;28;20121;-77
2021/09/30 18:23:01;;;;;;;4.35;2.08;;;;;;;15.83;57.27;102001.34;10499177;28;20121;-77
2021/09/30 18:28:02;;;;;;;4.45;2.28;;;;;;;15.30;55.24;101840.91;10481258;28;20220;-78
2021/09/30 18:33:02;;;;;;;9.07;2.65;;;;;;;15.22;55.98;101853.91;10481085;28;20456;-77
2021/09/30 18:38:03;;;;;;;9.15;1.67;;;;;;;16.39;56.18;101998.28;10480698;28;20534;-77
2021/09/30 18:43:07;;;;;;;2.53;1.80;;;;;;;16.34;56.53;102003.56;10480521;28;20045;-77
2021/09/30 18:48:08;;;;;;;4.05;1.77;;;;;;;15.33;56.37;101872.41;10497996;28;20044;-77
2021/09/30 18:53:09;;;;;;;5.60;2.92;;;;;;;16.08;56.25;101976.19;10447744;28;20036;-77
2021/09/30 18:58:09;;;;;;;2.03;1.70;;;;;;;16.27;55.50;101978.97;10497838;28;20480;-76
2021/09/30 19:03:09;;;;;;;3.67;1.48;;;;;;;15.35;56.24;101849.34;10484812;28;20033;-77
2021/09/30 19:08:10;;;;;;;3.00;1.35;;;;;;;16.02;54.77;101926.78;10505954;28;20524;-78
2021/09/30 19:13:11;;;;;;;5.25;1.88;;;;;;;15.52;56.24;101851.69;10506307;28;20029;-78
2021/09/30 19:18:11;;;;;;;2.58;1.17;;;;;;;16.42;55.37;101965.06;10506178;28;20032;-77
2021/09/30 19:23:11;;;;;;;10.68;2.17;;;;;;;15.64;55.71;101827.34;10505134;28;20040;-77
2021/09/30 19:28:12;;;;;;;7.95;2.03;;;;;;;16.29;56.26;101948.66;10505950;28;20557;-78
2021/09/30 19:33:12;;;;;;;7.78;2.40;;;;;;;16.27;55.13;101932.50;10506297;28;20041;-77
2021/09/30 19:38:13;;;;;;;2.70;1.30;;;;;;;16.09;56.45;101929.53;10505624;28;20048;-76
2021/09/30 19:43:13;;;;;;;4.07;1.73;;;;;;;16.20;55.78;101917.13;10505184;28;20059;-77
2021/09/30 19:48:14;;;;;;;2.45;1.50;;;;;;;16.17;56.44;101926.56;10470182;28;20464;-76
2021/09/30 19:53:17;;;;;;;2.65;1.17;;;;;;;15.89;56.36;101861.22;10504048;28;20037;-76
2021/09/30 19:58:17;;;;;;;2.80;1.95;;;;;;;15.22;56.31;101745.63;10504857;28;20396;-76
2021/09/30 20:03:18;;;;;;;3.17;1.52;;;;;;;15.59;57.78;101812.41;10469270;28;20043;-76
2021/09/30 20:08:18;;;;;;;4.18;1.65;;;;;;;15.90;56.41;101903.88;10486738;28;20040;-76
2021/09/30 20:13:19;;;;;;;2.17;1.63;;;;;;;16.08;56.18;101891.47;10485297;28;20040;-76
2021/09/30 20:18:19;;;;;;;7.50;1.52;;;;;;;15.38;56.37;101809.88;10485873;28;20071;-76
2021/09/30 20:23:19;;;;;;;4.40;1.85;;;;;;;15.72;56.92;101887.25;10503256;28;20103;-75
2021/09/30 20:28:20;;;;;;;4.75;2.67;;;;;;;15.66;56.40;101847.91;10503701;28;20146;-76
2021/09/30 20:33:21;;;;;;;4.30;1.95;;;;;;;15.56;56.99;101929.38;10503377;28;20086;-76
2021/09/30 20:38:21;;;;;;;6.40;2.35;;;;;;;15.66;57.38;101856.09;10485524;28;20533;-76
2021/09/30 20:43:22;;;;;;;3.08;1.73;;;;;;;15.57;56.32;101830.91;10502958;28;20045;-76
2021/09/30 20:48:24;;;;;;;10.05;2.03;;;;;;;15.59;57.57;101860.72;10502234;28;20087;-76
2021/09/30 20:53:24;;;;;;;5.85;2.20;;;;;;;15.42;57.39;101840.34;10501054;28;20113;-76
2021/09/30 20:58:26;;;;;;;5.28;2.28;;;;;;;15.70;57.14;101853.84;10502515;28;20483;-76
2021/09/30 21:03:26;;;;;;;5.55;1.90;;;;;;;15.67;57.11;101879.69;10501921;28;20391;-76
2021/09/30 21:08:27;;;;;;;3.92;2.28;;;;;;;15.47;57.01;101810.50;10501367;28;20045;-76
2021/09/30 21:13:27;;;;;;;3.95;2.40;;;;;;;14.94;56.83;101748.50;10484183;28;20036;-76
2021/09/30 21:18:28;;;;;;;3.40;1.92;;;;;;;15.96;56.87;101911.22;10467378;28;20071;-77
2021/09/30 21:23:29;;;;;;;7.65;2.28;;;;;;;15.14;57.27;101693.97;10466155;28;20029;-76
2021/09/30 21:28:29;;;;;;;7.80;2.28;;;;;;;16.31;55.32;101866.47;10483251;28;20066;-76
2021/09/30 21:33:29;;;;;;;3.15;1.95;;;;;;;16.24;56.24;101858.25;10500998;28;20114;-76
2021/09/30 21:38:30;;;;;;;8.98;2.50;;;;;;;16.08;55.71;101842.28;10501171;28;20037;-76
2021/09/30 21:43:30;;;;;;;6.28;1.63;;;;;;;16.36;56.31;101850.25;10499506;28;20564;-76
2021/09/30 21:48:31;;;;;;;5.65;2.17;;;;;;;16.61;55.92;101843.03;10500299;28;20472;-77
2021/09/30 21:53:31;;;;;;;4.70;1.85;;;;;;;15.84;54.77;101713.50;10499014;28;20407;-76
2021/09/30 21:58:32;;;;;;;4.45;1.33;;;;;;;16.13;55.11;101794.16;10465313;28;20052;-76
2021/09/30 22:03:32;;;;;;;2.90;1.40;;;;;;;15.41;55.21;101651.16;10499619;28;20090;-76
2021/09/30 22:08:32;;;;;;;4.20;2.22;;;;;;;16.35;54.88;101827.56;10498897;28;20067;-76
2021/09/30 22:13:33;;;;;;;7.10;2.40;;;;;;;15.91;55.33;101738.91;10481356;28;20040;-76
2021/09/30 22:18:33;;;;;;;5.70;2.35;;;;;;;16.17;54.36;101756.31;10500624;28;20049;-77
2021/09/30 22:23:34;;;;;;;7.35;1.52;;;;;;;14.21;54.86;101483.09;10480767;28;20029;-76
2021/09/30 22:28:34;;;;;;;13.57;1.70;;;;;;;16.57;54.05;101792.59;10500373;28;20032;-78
2021/09/30 22:33:35;;;;;;;6.15;1.70;;;;;;;16.34;54.73;101765.75;10481521;28;20029;-76
2021/09/30 22:38:35;;;;;;;9.65;2.63;;;;;;;16.23;54.17;101790.97;10498199;28;20060;-76
2021/09/30 22:43:36;;;;;;;3.65;2.47;;;;;;;15.63;54.22;101719.16;10481110;28;20101;-77
2021/09/30 22:48:36;;;;;;;4.57;1.88;;;;;;;15.87;55.16;101786.00;10464220;28;20040;-76
2021/09/30 22:53:36;;;;;;;3.75;1.92;;;;;;;15.95;55.23;101774.84;10497835;28;20120;-76
2021/09/30 22:58:37;;;;;;;2.10;1.80;;;;;;;15.81;55.78;101782.22;10498487;28;20047;-76
2021/09/30 23:03:37;;;;;;;3.00;1.95;;;;;;;15.51;55.37;101766.22;10498059;28;20028;-76
2021/09/30 23:08:38;;;;;;;5.50;2.38;;;;;;;15.83;56.03;101746.50;10498507;28;20520;-77
2021/09/30 23:13:38;;;;;;;5.65;2.22;;;;;;;15.65;55.83;101712.44;10480088;28;20037;-76
2021/09/30 23:18:38;;;;;;;5.72;1.50;;;;;;;16.26;55.87;101757.75;10497162;28;20109;-76
2021/09/30 23:23:39;;;;;;;3.22;1.80;;;;;;;16.13;55.68;101753.16;10479469;28;20055;-76
2021/09/30 23:28:39;;;;;;;6.30;2.30;;;;;;;15.68;55.84;101739.38;10480347;28;20384;-76
2021/09/30 23:33:40;;;;;;;6.28;1.48;;;;;;;15.70;55.98;101703.69;10497727;28;20064;-77
2021/09/30 23:38:40;;;;;;;7.63;2.65;;;;;;;15.38;56.64;101634.34;10497735;28;20161;-76
2021/09/30 23:43:40;;;;;;;9.00;2.22;;;;;;;15.87;56.81;101753.22;10479121;28;20063;-76
2021/09/30 23:48:41;;;;;;;3.60;1.65;;;;;;;15.61;56.43;101683.91;10499407;28;20040;-76
2021/09/30 23:53:41;;;;;;;11.60;1.80;;;;;;;15.66;56.88;101696.91;10486507;28;20028;-76
2021/09/30 23:58:42;;;;;;;22.90;2.83;;;;;;;15.87;55.67;101693.97;10505091;28;20036;-77
